createdAt,value
2018-11-14T00:02:26.739Z,9.20
2018-11-14T00:04:59.382Z,8.87
2018-11-14T00:07:31.979Z,8.80
2018-11-14T00:10:04.278Z,8.87
2018-11-14T00:12:36.778Z,8.30
2018-11-14T00:15:11.380Z,15.80
2018-11-14T00:17:44.866Z,8.53
2018-11-14T00:20:17.395Z,9.00
2018-11-14T00:22:50.844Z,9.23
2018-11-14T00:25:23.417Z,12.57
2018-11-14T00:27:55.968Z,11.17
2018-11-14T00:30:28.551Z,9.17
2018-11-14T00:33:01.018Z,9.37
2018-11-14T00:35:33.592Z,9.83
2018-11-14T00:38:06.076Z,11.10
2018-11-14T00:40:38.629Z,20.87
2018-11-14T00:43:36.055Z,9.93
2018-11-14T00:46:07.845Z,14.53
2018-11-14T00:48:40.417Z,9.10
2018-11-14T00:51:13.139Z,9.00
2018-11-14T00:53:45.878Z,9.40
2018-11-14T00:56:18.240Z,8.97
2018-11-14T00:58:50.801Z,9.20
2018-11-14T01:01:23.485Z,8.40
2018-11-14T01:03:56.185Z,9.47
2018-11-14T01:06:28.878Z,8.50
2018-11-14T01:09:01.635Z,9.67
2018-11-14T01:11:34.584Z,9.00
2018-11-14T01:14:07.241Z,9.50
2018-11-14T01:16:39.628Z,9.17
2018-11-14T01:19:12.244Z,8.80
2018-11-14T01:21:45.062Z,9.53
2018-11-14T01:24:17.561Z,9.33
2018-11-14T01:26:50.009Z,8.97
2018-11-14T01:29:22.516Z,9.63
2018-11-14T01:31:54.938Z,10.10
2018-11-14T01:34:27.383Z,9.53
2018-11-14T01:36:59.858Z,9.63
2018-11-14T01:39:32.807Z,9.40
2018-11-14T01:42:05.246Z,9.83
2018-11-14T01:44:37.998Z,9.20
2018-11-14T01:47:10.920Z,10.03
2018-11-14T01:49:43.687Z,9.93
2018-11-14T01:52:16.087Z,9.97
2018-11-14T01:54:48.901Z,10.17
2018-11-14T01:57:21.313Z,10.07
2018-11-14T01:59:54.188Z,11.20
2018-11-14T02:02:26.761Z,11.10
2018-11-14T02:04:59.384Z,10.23
2018-11-14T02:07:31.947Z,12.20
2018-11-14T02:10:04.511Z,10.70
2018-11-14T02:12:37.462Z,11.70
2018-11-14T02:15:15.548Z,11.60
2018-11-14T02:17:47.919Z,11.63
2018-11-14T02:20:20.364Z,11.63
2018-11-14T02:22:52.787Z,12.07
2018-11-14T02:25:25.317Z,11.03
2018-11-14T02:27:57.833Z,12.87
2018-11-14T02:30:30.437Z,12.50
2018-11-14T02:33:02.945Z,12.13
2018-11-14T02:35:35.582Z,12.77
2018-11-14T02:38:08.167Z,14.33
2018-11-14T02:40:40.756Z,15.90
2018-11-14T02:43:13.199Z,14.57
2018-11-14T02:45:45.654Z,15.27
2018-11-14T02:48:19.330Z,14.17
2018-11-14T02:51:22.104Z,14.20
2018-11-14T02:53:55.882Z,14.23
2018-11-14T02:56:29.884Z,14.03
2018-11-14T02:59:02.784Z,13.97
2018-11-14T03:01:35.329Z,14.13
2018-11-14T03:04:08.166Z,15.27
2018-11-14T03:06:40.788Z,15.60
2018-11-14T03:09:13.370Z,15.60
2018-11-14T03:11:45.955Z,16.13
2018-11-14T03:14:18.398Z,15.63
2018-11-14T03:16:51.099Z,15.70
2018-11-14T03:19:23.691Z,15.93
2018-11-14T03:21:56.152Z,16.77
2018-11-14T03:24:28.418Z,15.43
2018-11-14T03:27:00.922Z,16.93
2018-11-14T03:29:33.574Z,16.10
2018-11-14T03:32:06.095Z,16.23
2018-11-14T03:34:38.647Z,17.57
2018-11-14T03:37:11.207Z,18.23
2018-11-14T03:39:43.563Z,16.17
2018-11-14T03:42:16.128Z,17.27
2018-11-14T03:44:48.493Z,17.87
2018-11-14T03:47:20.936Z,17.40
2018-11-14T03:49:53.376Z,17.83
2018-11-14T03:52:25.918Z,19.10
2018-11-14T03:54:59.134Z,17.60
2018-11-14T03:57:31.762Z,19.33
2018-11-14T04:00:04.265Z,19.50
2018-11-14T04:02:36.732Z,20.87
2018-11-14T04:05:09.937Z,20.03
2018-11-14T04:07:42.892Z,19.80
2018-11-14T04:10:15.897Z,20.83
2018-11-14T04:12:48.649Z,20.87
2018-11-14T04:15:21.229Z,22.27
2018-11-14T04:17:53.628Z,22.67
2018-11-14T04:20:26.547Z,20.30
2018-11-14T04:22:59.056Z,21.43
2018-11-14T04:25:31.654Z,22.53
2018-11-14T04:28:04.166Z,22.33
2018-11-14T04:30:36.762Z,24.77
2018-11-14T04:33:09.512Z,23.73
2018-11-14T04:35:42.164Z,24.47
2018-11-14T04:38:14.563Z,23.60
2018-11-14T04:40:47.097Z,24.10
2018-11-14T04:43:19.640Z,24.50
2018-11-14T04:45:51.907Z,26.00
2018-11-14T04:48:24.380Z,25.90
2018-11-14T04:50:57.026Z,26.23
2018-11-14T04:53:29.476Z,27.27
2018-11-14T04:56:02.018Z,26.80
2018-11-14T04:58:34.555Z,28.53
2018-11-14T05:01:07.020Z,30.20
2018-11-14T05:03:39.455Z,30.33
2018-11-14T05:06:11.975Z,32.23
2018-11-14T05:08:44.472Z,31.20
2018-11-14T05:11:16.963Z,31.80
2018-11-14T05:13:49.440Z,30.13
2018-11-14T05:16:22.454Z,30.17
2018-11-14T05:18:54.912Z,32.67
2018-11-14T05:21:27.136Z,32.80
2018-11-14T05:23:59.342Z,32.33
2018-11-14T05:26:31.554Z,31.73
2018-11-14T05:29:03.919Z,33.33
2018-11-14T05:31:35.655Z,33.27
2018-11-14T05:34:07.482Z,31.17
2018-11-14T05:36:39.255Z,32.30
2018-11-14T05:39:12.680Z,31.73
2018-11-14T05:41:44.366Z,34.00
2018-11-14T05:44:16.083Z,32.97
2018-11-14T05:46:47.783Z,33.43
2018-11-14T05:49:19.508Z,77.93
2018-11-14T05:51:51.349Z,35.73
2018-11-14T05:54:23.011Z,33.10
2018-11-14T05:56:54.828Z,36.10
2018-11-14T05:59:29.297Z,33.20
2018-11-14T06:02:01.235Z,33.17
2018-11-14T06:04:32.822Z,29.43
2018-11-14T06:07:04.657Z,26.77
2018-11-14T06:09:36.245Z,26.27
2018-11-14T06:12:08.015Z,27.53
2018-11-14T06:14:39.657Z,27.73
2018-11-14T06:17:11.416Z,27.40
2018-11-14T06:19:43.058Z,27.00
2018-11-14T06:22:14.849Z,27.23
2018-11-14T06:24:46.542Z,26.10
2018-11-14T06:27:18.411Z,25.67
2018-11-14T06:29:50.097Z,26.53
2018-11-14T06:32:21.771Z,25.97
2018-11-14T06:34:53.418Z,26.57
2018-11-14T06:37:25.196Z,25.97
2018-11-14T06:39:56.900Z,24.40
2018-11-14T06:42:28.626Z,25.43
2018-11-14T06:45:00.336Z,24.60
2018-11-14T06:47:32.079Z,24.53
2018-11-14T06:50:04.114Z,24.83
2018-11-14T06:52:35.758Z,25.60
2018-11-14T06:55:08.654Z,25.20
2018-11-14T06:57:40.294Z,24.93
2018-11-14T07:00:18.104Z,23.03
2018-11-14T07:02:49.785Z,23.87
2018-11-14T07:05:21.347Z,23.57
2018-11-14T07:07:52.859Z,24.17
2018-11-14T07:10:25.772Z,24.53
2018-11-14T07:13:07.593Z,23.67
2018-11-14T07:15:39.715Z,25.40
2018-11-14T07:18:12.347Z,25.53
2018-11-14T07:20:45.067Z,23.67
2018-11-14T07:23:16.828Z,24.00
2018-11-14T07:25:48.530Z,24.73
2018-11-14T07:28:20.179Z,26.10
2018-11-14T07:30:51.887Z,24.67
2018-11-14T07:33:23.575Z,24.53
2018-11-14T07:35:55.246Z,25.90
2018-11-14T07:38:43.989Z,26.03
2018-11-14T07:41:36.500Z,24.17
2018-11-14T07:44:08.268Z,24.37
2018-11-14T07:46:39.935Z,25.33
2018-11-14T07:49:11.792Z,23.40
2018-11-14T07:51:43.366Z,22.73
2018-11-14T07:54:15.095Z,22.73
2018-11-14T07:56:46.706Z,24.07
2018-11-14T07:59:18.404Z,23.80
2018-11-14T08:01:50.255Z,24.90
2018-11-14T08:04:21.846Z,24.13
2018-11-14T08:06:53.563Z,24.37
2018-11-14T08:09:25.258Z,25.53
2018-11-14T08:11:56.915Z,26.67
2018-11-14T08:14:28.707Z,27.10
2018-11-14T08:17:00.343Z,26.47
2018-11-14T08:19:31.975Z,26.10
2018-11-14T08:22:03.713Z,27.27
2018-11-14T08:24:35.388Z,28.00
2018-11-14T08:27:07.088Z,27.77
2018-11-14T08:29:38.706Z,28.30
2018-11-14T08:32:10.496Z,28.00
2018-11-14T08:34:42.130Z,30.03
2018-11-14T08:37:13.861Z,27.60
2018-11-14T08:39:45.637Z,29.23
2018-11-14T08:42:17.360Z,27.37
2018-11-14T08:44:49.203Z,28.40
2018-11-14T08:47:20.909Z,28.30
2018-11-14T08:49:52.778Z,27.63
2018-11-14T08:52:24.421Z,28.33
2018-11-14T08:54:56.206Z,28.47
2018-11-14T08:57:27.931Z,28.30
2018-11-14T08:59:59.685Z,28.40
2018-11-14T09:02:31.428Z,27.87
2018-11-14T09:05:03.133Z,27.57
2018-11-14T09:07:34.901Z,26.43
2018-11-14T09:10:07.891Z,27.57
2018-11-14T09:12:39.863Z,27.63
2018-11-14T09:15:32.557Z,27.10
2018-11-14T09:18:13.213Z,26.80
2018-11-14T09:20:44.887Z,26.60
2018-11-14T09:23:16.602Z,25.47
2018-11-14T09:25:48.367Z,23.90
2018-11-14T09:28:20.102Z,24.70
2018-11-14T09:30:51.702Z,23.27
2018-11-14T09:33:23.405Z,23.60
2018-11-14T09:35:55.097Z,22.37
2018-11-14T09:38:26.802Z,22.40
2018-11-14T09:41:00.906Z,21.80
2018-11-14T09:43:30.947Z,22.20
2018-11-14T09:46:02.612Z,21.90
2018-11-14T09:48:34.466Z,23.07
2018-11-14T09:51:06.073Z,21.47
2018-11-14T09:53:37.861Z,22.27
2018-11-14T09:56:09.817Z,22.10
2018-11-14T09:58:41.501Z,21.77
2018-11-14T10:01:13.211Z,21.93
2018-11-14T10:03:44.936Z,22.83
2018-11-14T10:06:17.098Z,20.30
2018-11-14T10:08:48.845Z,21.67
2018-11-14T10:11:20.389Z,20.10
2018-11-14T10:13:52.096Z,19.80
2018-11-14T10:16:23.817Z,20.53
2018-11-14T10:18:55.492Z,19.73
2018-11-14T10:21:27.572Z,19.30
2018-11-14T10:23:59.178Z,20.37
2018-11-14T10:26:30.945Z,20.30
2018-11-14T10:29:02.652Z,19.20
2018-11-14T10:31:34.362Z,20.50
2018-11-14T10:34:06.561Z,18.80
2018-11-14T10:36:38.206Z,18.97
2018-11-14T10:39:12.721Z,17.77
2018-11-14T10:41:44.369Z,18.53
2018-11-14T10:44:16.119Z,18.27
2018-11-14T10:46:47.806Z,17.97
2018-11-14T10:49:19.720Z,17.80
2018-11-14T10:51:51.388Z,15.67
2018-11-14T10:54:23.103Z,16.60
2018-11-14T10:56:54.889Z,17.27
2018-11-14T10:59:26.529Z,16.50
2018-11-14T11:02:15.194Z,17.40
2018-11-14T11:05:03.950Z,17.43
2018-11-14T11:07:52.939Z,17.23
2018-11-14T11:10:41.541Z,16.70
2018-11-14T11:13:30.520Z,16.50
2018-11-14T11:16:19.251Z,16.47
2018-11-14T11:18:51.388Z,16.47
2018-11-14T11:21:23.197Z,17.37
2018-11-14T11:23:54.862Z,17.10
2018-11-14T11:26:26.497Z,16.10
2018-11-14T11:28:58.138Z,15.33
2018-11-14T11:31:29.921Z,15.37
2018-11-14T11:34:01.663Z,14.77
2018-11-14T11:36:33.448Z,15.47
2018-11-14T11:39:06.846Z,15.43
2018-11-14T11:41:38.681Z,15.73
2018-11-14T11:44:10.655Z,14.93
2018-11-14T11:46:43.265Z,15.77
2018-11-14T11:49:15.005Z,16.47
2018-11-14T11:51:46.754Z,15.57
2018-11-14T11:54:18.521Z,15.60
2018-11-14T11:56:50.193Z,15.80
2018-11-14T11:59:21.929Z,16.60
2018-11-14T12:01:53.703Z,16.97
2018-11-14T12:04:25.349Z,16.30
2018-11-14T12:06:57.087Z,16.23
2018-11-14T12:09:28.674Z,15.93
2018-11-14T12:12:00.179Z,16.90
2018-11-14T12:14:31.837Z,16.57
2018-11-14T12:17:03.480Z,17.77
2018-11-14T12:19:35.301Z,17.20
2018-11-14T12:22:06.899Z,17.80
2018-11-14T12:24:38.557Z,16.67
2018-11-14T12:27:10.230Z,17.80
2018-11-14T12:29:41.826Z,18.10
2018-11-14T12:32:13.661Z,18.20
2018-11-14T12:34:45.508Z,18.50
2018-11-14T12:37:17.146Z,18.43
2018-11-14T12:39:48.837Z,19.30
2018-11-14T12:42:20.548Z,18.93
2018-11-14T12:44:52.157Z,18.80
2018-11-14T12:47:23.839Z,18.30
2018-11-14T12:49:55.561Z,17.73
2018-11-14T12:52:27.264Z,17.70
2018-11-14T12:54:58.935Z,19.23
2018-11-14T12:57:30.776Z,19.30
2018-11-14T13:00:02.434Z,18.87
2018-11-14T13:02:33.982Z,19.27
2018-11-14T13:05:05.712Z,19.43
2018-11-14T13:07:37.403Z,18.87
2018-11-14T13:10:11.313Z,18.00
2018-11-14T13:12:43.277Z,19.90
2018-11-14T13:15:15.906Z,18.63
2018-11-14T13:17:47.597Z,18.93
2018-11-14T13:20:21.467Z,19.73
2018-11-14T13:22:53.179Z,19.27
2018-11-14T13:25:25.030Z,21.07
2018-11-14T13:27:56.633Z,20.20
2018-11-14T13:30:47.359Z,19.83
2018-11-14T13:33:39.135Z,19.40
2018-11-14T13:36:30.020Z,19.57
2018-11-14T13:39:38.936Z,20.07
2018-11-14T13:42:29.528Z,17.77
2018-11-14T13:45:20.749Z,19.53
2018-11-14T13:48:12.032Z,18.23
2018-11-14T13:51:03.675Z,17.73
2018-11-14T13:54:13.268Z,19.03
2018-11-14T13:57:04.916Z,17.77
2018-11-14T13:59:55.708Z,18.53
2018-11-14T14:05:55.532Z,18.10
2018-11-14T14:08:45.963Z,17.53
2018-11-14T14:11:55.930Z,17.77
2018-11-14T14:15:07.171Z,17.50
2018-11-14T14:17:57.923Z,17.90
2018-11-14T14:20:48.393Z,18.30
2018-11-14T14:23:46.400Z,17.47
2018-11-14T14:26:55.961Z,18.07
2018-11-14T14:30:04.866Z,17.57
2018-11-14T14:33:14.501Z,19.00
2018-11-14T14:36:05.001Z,17.17
2018-11-14T14:38:56.202Z,18.10
2018-11-14T14:41:46.724Z,18.60
2018-11-14T14:44:37.095Z,18.90
2018-11-14T14:47:27.644Z,18.87
2018-11-14T14:50:19.093Z,19.10
2018-11-14T14:53:29.498Z,19.03
2018-11-14T14:56:20.316Z,20.43
2018-11-14T14:59:10.711Z,18.57
2018-11-14T15:02:02.290Z,18.33
2018-11-14T15:04:52.672Z,18.77
2018-11-14T15:07:43.996Z,20.00
2018-11-14T15:10:34.454Z,19.10
2018-11-14T15:13:25.138Z,19.13
2018-11-14T15:16:15.560Z,18.33
2018-11-14T15:22:34.926Z,17.77
2018-11-14T15:25:25.333Z,19.03
2018-11-14T15:28:34.793Z,17.83
2018-11-14T15:31:25.812Z,17.07
2018-11-14T15:34:16.549Z,22.87
2018-11-14T15:37:07.301Z,44.37
2018-11-14T15:39:58.379Z,65.73
2018-11-14T15:42:49.719Z,54.03
2018-11-14T15:45:41.639Z,38.00
2018-11-14T15:48:51.508Z,24.33
2018-11-14T15:51:42.933Z,18.60
2018-11-14T15:54:34.816Z,17.60
2018-11-14T15:57:25.281Z,22.17
2018-11-14T16:00:35.072Z,20.63
2018-11-14T16:03:25.474Z,21.07
2018-11-14T16:06:17.188Z,21.00
2018-11-14T16:09:12.883Z,20.40
2018-11-14T16:12:40.647Z,21.27
2018-11-14T16:15:50.105Z,20.80
2018-11-14T16:19:00.421Z,18.90
2018-11-14T16:21:50.781Z,18.93
2018-11-14T16:25:00.449Z,19.83
2018-11-14T16:27:53.145Z,20.20
2018-11-14T16:30:44.217Z,21.60
2018-11-14T16:33:35.873Z,22.50
2018-11-14T16:36:26.249Z,24.53
2018-11-14T16:39:35.136Z,19.73
2018-11-14T16:42:27.166Z,19.30
2018-11-14T16:45:20.178Z,16.20
2018-11-14T16:48:11.448Z,18.23
2018-11-14T16:51:01.828Z,20.57
2018-11-14T16:54:10.696Z,20.57
2018-11-14T16:57:01.102Z,19.37
2018-11-14T16:59:51.499Z,19.97
2018-11-14T17:02:44.670Z,19.10
2018-11-14T17:05:35.065Z,18.33
2018-11-14T17:08:26.193Z,17.17
2018-11-14T17:11:17.960Z,17.83
2018-11-14T17:14:09.741Z,16.80
2018-11-14T17:17:01.223Z,17.77
2018-11-14T17:19:52.003Z,17.43
2018-11-14T17:22:43.387Z,17.70
2018-11-14T17:25:34.046Z,16.63
2018-11-14T17:28:27.112Z,16.23
2018-11-14T17:30:58.659Z,16.83
2018-11-14T17:34:07.850Z,17.03
2018-11-14T17:36:58.352Z,16.07
2018-11-14T17:39:48.730Z,16.73
2018-11-14T17:42:58.319Z,17.60
2018-11-14T17:45:48.935Z,16.07
2018-11-14T17:48:39.369Z,16.10
2018-11-14T17:51:29.791Z,16.80
2018-11-14T17:54:20.187Z,18.23
2018-11-14T17:57:12.718Z,16.57
2018-11-14T18:00:03.676Z,16.43
2018-11-14T18:02:54.142Z,17.83
2018-11-14T18:05:44.756Z,16.30
2018-11-14T18:08:56.627Z,14.70
2018-11-14T18:11:48.334Z,15.50
2018-11-14T18:14:40.373Z,18.93
2018-11-14T18:17:31.524Z,18.87
2018-11-14T18:20:23.696Z,20.57
2018-11-14T18:23:17.057Z,19.17
2018-11-14T18:26:07.575Z,15.93
2018-11-14T18:28:58.589Z,15.50
2018-11-14T18:31:50.125Z,21.10
2018-11-14T18:34:41.350Z,17.97
2018-11-14T18:37:51.871Z,15.37
2018-11-14T18:40:42.264Z,19.90
2018-11-14T18:43:34.103Z,16.97
2018-11-14T18:46:24.511Z,16.47
2018-11-14T18:49:15.185Z,16.10
2018-11-14T18:52:07.551Z,15.57
2018-11-14T18:54:58.601Z,13.90
2018-11-14T18:57:50.854Z,15.63
2018-11-14T19:01:00.407Z,14.73
2018-11-14T19:03:52.905Z,13.83
2018-11-14T19:06:43.949Z,17.10
2018-11-14T19:09:34.830Z,18.60
2018-11-14T19:12:25.835Z,20.27
2018-11-14T19:15:35.403Z,18.30
2018-11-14T19:18:25.871Z,18.30
2018-11-14T19:21:35.226Z,16.33
2018-11-14T19:24:25.638Z,14.77
2018-11-14T19:27:16.082Z,14.60
2018-11-14T19:30:08.825Z,15.73
2018-11-14T19:33:06.426Z,15.07
2018-11-14T19:35:56.780Z,17.20
2018-11-14T19:38:47.191Z,16.33
2018-11-14T19:41:38.671Z,17.47
2018-11-14T19:44:29.117Z,17.83
2018-11-14T19:47:19.982Z,18.43
2018-11-14T19:50:02.800Z,18.60
2018-11-14T19:53:11.711Z,17.07
2018-11-14T19:56:02.236Z,15.97
2018-11-14T19:58:52.515Z,16.33
2018-11-14T20:01:43.840Z,18.23
2018-11-14T20:04:34.367Z,23.13
2018-11-14T20:07:25.556Z,24.50
2018-11-14T20:10:35.212Z,22.77
2018-11-14T20:13:45.051Z,24.17
2018-11-14T20:16:36.550Z,30.20
2018-11-14T20:19:28.563Z,26.33
2018-11-14T20:22:17.734Z,18.97
2018-11-14T20:25:09.095Z,16.73
2018-11-14T20:31:28.075Z,16.27
2018-11-14T20:34:18.410Z,15.93
2018-11-14T20:37:49.998Z,15.30
2018-11-14T20:40:44.830Z,15.77
2018-11-14T20:43:54.958Z,16.37
2018-11-14T20:46:47.111Z,16.87
2018-11-14T20:49:56.764Z,18.87
2018-11-14T20:53:08.477Z,18.03
2018-11-14T20:56:00.043Z,21.20
2018-11-14T20:59:08.903Z,17.60
2018-11-14T21:02:00.165Z,18.93
2018-11-14T21:04:51.969Z,18.30
2018-11-14T21:08:01.010Z,17.90
2018-11-14T21:10:52.163Z,18.03
2018-11-14T21:14:01.709Z,16.50
2018-11-14T21:20:03.058Z,14.33
2018-11-14T21:22:57.349Z,14.40
2018-11-14T21:25:49.281Z,16.37
2018-11-14T21:28:41.743Z,17.33
2018-11-14T21:31:51.998Z,15.90
2018-11-14T21:34:44.139Z,15.83
2018-11-14T21:37:36.455Z,15.67
2018-11-14T21:40:27.463Z,12.83
2018-11-14T21:43:36.810Z,12.03
2018-11-14T21:46:27.726Z,13.97
2018-11-14T21:49:36.673Z,18.10
2018-11-14T21:52:27.261Z,13.67
2018-11-14T21:55:18.351Z,16.43
2018-11-14T21:58:27.707Z,14.80
2018-11-14T22:01:21.085Z,13.83
2018-11-14T22:04:15.417Z,12.40
2018-11-14T22:10:36.890Z,14.30
2018-11-14T22:13:46.803Z,21.23
2018-11-14T22:16:38.549Z,17.93
2018-11-14T22:19:48.510Z,15.30
2018-11-14T22:22:40.760Z,15.03
2018-11-14T22:25:32.105Z,15.20
2018-11-14T22:28:23.104Z,14.00
2018-11-14T22:31:15.321Z,18.73
2018-11-14T22:34:08.391Z,25.87
2018-11-14T22:36:59.598Z,22.00
2018-11-14T22:39:52.669Z,15.23
2018-11-14T22:46:00.726Z,24.83
2018-11-14T22:48:53.499Z,16.93
2018-11-14T22:51:50.603Z,15.23
2018-11-14T22:55:03.221Z,14.60
2018-11-14T22:57:55.231Z,14.50
2018-11-14T23:00:49.089Z,13.87
2018-11-14T23:03:41.081Z,13.83
2018-11-14T23:06:35.359Z,13.07
2018-11-14T23:12:40.153Z,12.37
2018-11-14T23:15:51.153Z,12.37
2018-11-14T23:18:42.992Z,13.33
2018-11-14T23:21:33.901Z,14.93
2018-11-14T23:24:24.105Z,14.33
2018-11-14T23:27:17.051Z,13.43
2018-11-14T23:30:26.653Z,12.53
2018-11-14T23:33:17.966Z,13.30
2018-11-14T23:36:09.726Z,13.27
2018-11-14T23:39:01.365Z,12.73
2018-11-14T23:41:52.945Z,11.33
2018-11-14T23:44:44.464Z,12.60
2018-11-14T23:47:36.133Z,11.93
2018-11-14T23:50:29.070Z,13.47
2018-11-14T23:53:20.037Z,13.17
2018-11-14T23:59:59.491Z,12.43
